Time;durP1;ratioP1;P1;durP2;ratioP2;P2;SDS_P1;SDS_P2;PMS_P1;PMS_P2;Temp;Humidity;BMP_temperature;BMP_pressure;BME280_temperature;BME280_humidity;BME280_pressure;Samples;Min_cycle;Max_cycle;Signal;HPM_P1;HPM_P2
2021/06/17 00:00:29;;;;;;;4.00;3.47;;;22.00;99.90;;;;;;5030323;28;20171;-76
2021/06/17 00:02:56;;;;;;;4.00;3.53;;;22.00;99.90;;;;;;5013424;28;20675;-76
2021/06/17 00:05:22;;;;;;;4.30;3.60;;;21.90;99.90;;;;;;5030061;28;20198;-76
2021/06/17 00:07:48;;;;;;;4.13;3.43;;;21.90;99.90;;;;;;5030025;28;20233;-76
2021/06/17 00:10:25;;;;;;;4.13;3.30;;;21.90;99.90;;;;;;5013485;28;20598;-76
2021/06/17 00:12:51;;;;;;;4.47;3.70;;;21.80;99.90;;;;;;5028898;28;20283;-76
2021/06/17 00:15:17;;;;;;;4.70;3.57;;;21.80;99.90;;;;;;5030202;28;20670;-76
2021/06/17 00:17:43;;;;;;;3.93;3.53;;;21.80;99.90;;;;;;5030069;28;20616;-76
2021/06/17 00:20:09;;;;;;;5.10;3.37;;;21.80;99.90;;;;;;5029955;28;20187;-76
2021/06/17 00:22:34;;;;;;;3.57;3.20;;;21.70;99.90;;;;;;5029890;28;20210;-76
2021/06/17 00:25:00;;;;;;;3.60;3.20;;;21.70;99.90;;;;;;5029772;28;20631;-76
2021/06/17 00:27:26;;;;;;;3.97;3.20;;;21.70;99.90;;;;;;5029941;28;20258;-76
2021/06/17 00:29:52;;;;;;;3.87;3.40;;;21.70;99.90;;;;;;5029605;28;20180;-76
2021/06/17 00:32:18;;;;;;;6.40;3.37;;;21.60;99.90;;;;;;5029805;28;20185;-76
2021/06/17 00:34:43;;;;;;;3.93;3.47;;;21.60;99.90;;;;;;5029306;28;20270;-76
2021/06/17 00:37:09;;;;;;;4.00;3.60;;;21.50;99.90;;;;;;5030031;28;20211;-76
2021/06/17 00:39:34;;;;;;;3.87;3.47;;;21.50;99.90;;;;;;5014347;28;20655;-76
2021/06/17 00:42:00;;;;;;;6.07;3.53;;;21.50;99.90;;;;;;5012967;28;20180;-76
2021/06/17 00:44:25;;;;;;;4.33;3.67;;;21.50;99.90;;;;;;5012787;28;20200;-76
2021/06/17 00:46:51;;;;;;;4.17;3.43;;;21.50;99.90;;;;;;5012395;28;20219;-76
2021/06/17 00:49:16;;;;;;;4.77;4.23;;;21.50;99.90;;;;;;5029371;28;20651;-76
2021/06/17 00:51:42;;;;;;;4.33;3.70;;;21.40;99.90;;;;;;5013284;28;20647;-76
2021/06/17 00:54:08;;;;;;;4.33;3.80;;;21.40;99.90;;;;;;5029197;28;20234;-76
2021/06/17 00:56:33;;;;;;;4.23;3.73;;;21.40;99.90;;;;;;5029264;28;20678;-76
2021/06/17 00:58:59;;;;;;;4.33;3.87;;;21.30;99.90;;;;;;5012827;28;20176;-76
2021/06/17 01:01:25;;;;;;;4.33;3.93;;;21.40;99.90;;;;;;5012478;28;20229;-76
2021/06/17 01:03:50;;;;;;;6.73;3.73;;;21.40;99.90;;;;;;5028671;28;20208;-76
2021/06/17 01:06:16;;;;;;;4.30;3.90;;;21.40;99.90;;;;;;5029150;28;20525;-76
2021/06/17 01:09:07;;;;;;;5.07;4.10;;;21.50;99.90;;;;;;5012489;28;20183;-76
2021/06/17 01:11:32;;;;;;;4.80;4.13;;;21.50;99.90;;;;;;5013813;28;20237;-76
2021/06/17 01:14:14;;;;;;;4.50;3.70;;;21.30;99.90;;;;;;5013165;28;20616;-76
2021/06/17 01:16:51;;;;;;;4.57;3.60;;;21.20;99.90;;;;;;5028913;28;20171;-76
2021/06/17 01:19:25;;;;;;;5.23;3.90;;;21.10;99.90;;;;;;5012397;28;20224;-76
2021/06/17 01:22:15;;;;;;;4.53;3.60;;;21.10;99.90;;;;;;5013700;28;20175;-76
2021/06/17 01:24:56;;;;;;;5.63;4.00;;;21.10;99.90;;;;;;5013034;28;20175;-76
2021/06/17 01:27:40;;;;;;;4.87;3.83;;;21.10;99.90;;;;;;5012123;28;20188;-76
2021/06/17 01:30:11;;;;;;;6.57;3.80;;;21.00;99.90;;;;;;5027951;28;20183;-76
2021/06/17 01:32:42;;;;;;;5.63;4.00;;;21.10;99.90;;;;;;5028601;28;20262;-76
2021/06/17 01:35:08;;;;;;;4.90;4.03;;;21.10;99.90;;;;;;5028707;28;20176;-76
2021/06/17 01:37:34;;;;;;;4.80;3.80;;;21.20;99.90;;;;;;5011801;28;20211;-76
2021/06/17 01:40:00;;;;;;;5.97;3.87;;;21.20;99.90;;;;;;5028257;28;20519;-76
2021/06/17 01:42:26;;;;;;;4.53;3.70;;;21.10;99.90;;;;;;5011935;28;20268;-76
2021/06/17 01:44:58;;;;;;;4.80;3.70;;;21.00;99.90;;;;;;5012317;28;20282;-76
2021/06/17 01:47:25;;;;;;;4.83;3.70;;;20.90;99.90;;;;;;5028070;28;20209;-76
2021/06/17 01:49:51;;;;;;;5.40;3.87;;;20.80;99.90;;;;;;5012020;28;20191;-76
2021/06/17 01:52:16;;;;;;;4.77;3.93;;;20.70;99.90;;;;;;5028282;28;20233;-76
2021/06/17 01:54:42;;;;;;;4.37;3.80;;;20.70;99.90;;;;;;5028071;28;20176;-76
2021/06/17 01:57:08;;;;;;;5.53;4.20;;;20.70;99.90;;;;;;5028218;28;20203;-76
2021/06/17 01:59:33;;;;;;;3.77;3.37;;;20.60;99.90;;;;;;5028393;28;20215;-76
2021/06/17 02:01:59;;;;;;;5.33;4.13;;;20.60;99.90;;;;;;5028160;28;20180;-75
2021/06/17 02:04:25;;;;;;;7.63;3.90;;;20.60;99.90;;;;;;5064217;22;20378;-80
2021/06/17 02:06:50;;;;;;;4.20;3.77;;;20.60;99.90;;;;;;5056356;28;20189;-81
2021/06/17 02:09:16;;;;;;;3.67;3.30;;;20.50;99.90;;;;;;5039566;28;20184;-81
2021/06/17 02:11:42;;;;;;;5.13;4.13;;;20.50;99.90;;;;;;5039913;28;20272;-81
2021/06/17 02:14:13;;;;;;;4.27;3.83;;;20.40;99.90;;;;;;5039307;28;20169;-81
2021/06/17 02:16:40;;;;;;;4.73;3.60;;;20.40;99.90;;;;;;5055947;28;20170;-81
2021/06/17 02:19:06;;;;;;;4.27;3.63;;;20.40;99.90;;;;;;5056236;28;20176;-80
2021/06/17 02:21:32;;;;;;;6.07;3.63;;;20.30;99.90;;;;;;5038866;28;20592;-81
2021/06/17 02:23:58;;;;;;;4.57;4.03;;;20.30;99.90;;;;;;5039184;28;20227;-81
2021/06/17 02:26:25;;;;;;;5.37;4.20;;;20.20;99.90;;;;;;5039023;28;20188;-81
2021/06/17 02:28:51;;;;;;;4.80;3.83;;;20.20;99.90;;;;;;5055933;28;20219;-81
2021/06/17 02:31:18;;;;;;;5.73;3.83;;;20.10;99.90;;;;;;5055800;28;20201;-81
2021/06/17 02:33:46;;;;;;;6.40;4.27;;;20.00;99.90;;;;;;5039169;28;20268;-81
2021/06/17 02:36:12;;;;;;;7.07;4.20;;;20.00;99.90;;;;;;5056131;28;20201;-81
2021/06/17 02:38:39;;;;;;;5.33;4.57;;;20.10;99.90;;;;;;5054331;28;20209;-81
2021/06/17 02:41:07;;;;;;;7.27;4.23;;;20.20;99.90;;;;;;5035723;28;20556;-81
2021/06/17 02:43:34;;;;;;;5.23;4.50;;;20.30;99.90;;;;;;5035284;28;20186;-81
2021/06/17 02:46:00;;;;;;;5.00;4.20;;;20.40;99.90;;;;;;5035349;28;20206;-81
2021/06/17 02:48:26;;;;;;;6.70;4.50;;;20.50;99.90;;;;;;5052558;28;20178;-81
2021/06/17 02:50:51;;;;;;;7.17;4.50;;;20.50;99.90;;;;;;5052460;28;20179;-81
2021/06/17 02:53:17;;;;;;;4.83;3.93;;;20.40;99.90;;;;;;5035592;28;20178;-81
2021/06/17 02:55:43;;;;;;;4.83;3.93;;;20.30;99.90;;;;;;5052399;28;20194;-81
2021/06/17 02:58:21;;;;;;;4.47;4.07;;;20.30;99.90;;;;;;5038671;28;20308;-80
2021/06/17 03:00:55;;;;;;;7.63;4.30;;;20.20;99.90;;;;;;5073871;28;20193;-81
2021/06/17 03:03:36;;;;;;;4.53;4.00;;;20.10;99.90;;;;;;5056149;28;20180;-81
2021/06/17 03:06:13;;;;;;;5.53;4.37;;;20.00;99.90;;;;;;5074253;28;20243;-81
2021/06/17 03:08:47;;;;;;;4.47;4.07;;;20.00;99.90;;;;;;5056014;28;20657;-81
2021/06/17 03:11:13;;;;;;;5.07;4.20;;;20.00;99.90;;;;;;5056348;28;20262;-81
2021/06/17 03:13:40;;;;;;;5.43;4.07;;;19.90;99.90;;;;;;5072126;28;20662;-81
2021/06/17 03:16:07;;;;;;;4.80;4.23;;;19.90;99.90;;;;;;5075907;28;20197;-81
2021/06/17 03:18:32;;;;;;;5.50;4.50;;;19.90;99.90;;;;;;5059170;28;20209;-81
2021/06/17 03:20:58;;;;;;;6.50;4.20;;;19.90;99.90;;;;;;5059491;28;20173;-81
2021/06/17 03:23:24;;;;;;;5.00;3.73;;;19.90;99.90;;;;;;5075490;28;20182;-81
2021/06/17 03:25:51;;;;;;;5.07;4.20;;;19.90;99.90;;;;;;5059240;28;20202;-81
2021/06/17 03:28:16;;;;;;;8.00;4.30;;;19.80;99.90;;;;;;5059232;28;20184;-81
2021/06/17 03:30:46;;;;;;;4.80;3.90;;;19.80;99.90;;;;;;5059074;28;20212;-81
2021/06/17 03:33:11;;;;;;;5.17;4.30;;;19.70;99.90;;;;;;5059624;28;20704;-81
2021/06/17 03:35:37;;;;;;;5.00;4.50;;;19.70;99.90;;;;;;5059078;28;20244;-81
2021/06/17 03:38:03;;;;;;;4.83;3.97;;;19.70;99.90;;;;;;5058725;28;20571;-81
2021/06/17 03:40:28;;;;;;;5.30;3.80;;;19.70;99.90;;;;;;5059259;28;20231;-81
2021/06/17 03:42:54;;;;;;;7.77;4.60;;;19.70;99.90;;;;;;5058879;28;20201;-81
2021/06/17 03:45:20;;;;;;;6.73;4.53;;;19.70;99.90;;;;;;5058785;28;20196;-81
2021/06/17 03:47:48;;;;;;;6.20;4.17;;;19.70;99.90;;;;;;5058955;28;20181;-81
2021/06/17 03:50:14;;;;;;;6.33;4.50;;;19.70;99.90;;;;;;5058767;28;20197;-81
2021/06/17 03:52:42;;;;;;;6.90;4.10;;;19.70;99.90;;;;;;5058453;28;20181;-81
2021/06/17 03:55:08;;;;;;;7.10;4.40;;;19.80;99.90;;;;;;5075429;28;20879;-80
2021/06/17 03:57:34;;;;;;;4.97;4.10;;;19.80;99.90;;;;;;5075426;28;20236;-81
2021/06/17 04:00:00;;;;;;;5.43;4.30;;;19.80;99.90;;;;;;5074762;28;20194;-81
2021/06/17 04:02:27;;;;;;;4.93;4.33;;;19.90;99.90;;;;;;5058100;28;20174;-80
2021/06/17 04:04:53;;;;;;;5.57;4.33;;;19.90;99.90;;;;;;5057653;28;20208;-81
2021/06/17 04:07:21;;;;;;;5.83;4.23;;;19.90;99.90;;;;;;5058099;28;20182;-80
2021/06/17 04:09:47;;;;;;;5.33;4.13;;;20.00;99.90;;;;;;5058099;28;20180;-81
2021/06/17 04:12:17;;;;;;;5.67;4.37;;;20.20;99.90;;;;;;5057961;28;20177;-80
2021/06/17 04:14:48;;;;;;;5.80;4.40;;;20.20;99.90;;;;;;5053625;28;20676;-81
2021/06/17 04:17:16;;;;;;;4.47;4.07;;;20.40;99.90;;;;;;5038327;28;20206;-81
2021/06/17 04:19:42;;;;;;;4.83;4.37;;;20.40;99.90;;;;;;5055055;28;20186;-80
2021/06/17 04:22:08;;;;;;;5.00;3.80;;;20.50;99.90;;;;;;5054266;28;20536;-81
2021/06/17 04:24:36;;;;;;;4.90;3.80;;;20.40;99.90;;;;;;5037621;28;20818;-81
2021/06/17 04:27:01;;;;;;;6.40;4.73;;;20.40;99.90;;;;;;5053326;28;20174;-80
2021/06/17 04:29:27;;;;;;;4.83;4.27;;;20.50;99.90;;;;;;5054215;28;20178;-81
2021/06/17 04:31:53;;;;;;;5.37;4.17;;;20.50;99.90;;;;;;5037538;28;20273;-81
2021/06/17 04:34:19;;;;;;;6.63;4.27;;;20.60;99.90;;;;;;5037523;28;20198;-80
2021/06/17 04:36:44;;;;;;;4.67;4.27;;;20.70;99.90;;;;;;5037767;28;20186;-81
2021/06/17 04:39:10;;;;;;;4.97;4.07;;;20.80;99.90;;;;;;5040094;28;20185;-82
2021/06/17 04:41:38;;;;;;;4.47;4.07;;;20.90;99.90;;;;;;5057329;28;20189;-81
2021/06/17 04:44:04;;;;;;;4.70;4.13;;;21.00;99.90;;;;;;5039017;28;20178;-81
2021/06/17 04:46:30;;;;;;;4.10;3.70;;;21.00;99.90;;;;;;5049040;28;20680;-82
2021/06/17 04:48:56;;;;;;;3.97;3.57;;;21.00;99.90;;;;;;5055451;28;20179;-81
2021/06/17 04:51:22;;;;;;;6.77;4.00;;;21.20;99.90;;;;;;5055621;28;20187;-81
2021/06/17 04:53:50;;;;;;;4.57;4.07;;;21.30;99.90;;;;;;5055487;28;20181;-82
2021/06/17 04:56:16;;;;;;;4.40;3.80;;;21.40;99.90;;;;;;5055456;28;20197;-81
2021/06/17 04:58:42;;;;;;;6.30;4.30;;;21.50;99.90;;;;;;5073930;28;20198;-80
2021/06/17 05:01:08;;;;;;;4.47;4.07;;;21.50;99.90;;;;;;5059330;28;20644;-82
2021/06/17 05:03:35;;;;;;;4.00;3.60;;;21.60;99.90;;;;;;5057520;28;20190;-82
2021/06/17 05:06:02;;;;;;;5.13;3.97;;;21.70;99.90;;;;;;5058345;28;20293;-82
2021/06/17 05:11:12;;;;;;;4.80;3.73;;;21.90;99.90;;;;;;5075363;28;20326;-81
2021/06/17 05:13:42;;;;;;;3.97;3.40;;;22.10;99.90;;;;;;5075080;28;20174;-82
2021/06/17 05:16:08;;;;;;;5.63;3.80;;;22.10;99.90;;;;;;5058887;28;20197;-80
2021/06/17 05:18:33;;;;;;;8.20;3.77;;;22.30;99.90;;;;;;5054769;28;20762;-81
2021/06/17 05:20:59;;;;;;;3.87;3.20;;;22.40;99.90;;;;;;5048418;28;20173;-83
2021/06/17 05:23:25;;;;;;;4.67;3.93;;;22.50;99.90;;;;;;5058520;28;20173;-82
2021/06/17 05:25:51;;;;;;;5.73;3.70;;;22.60;99.90;;;;;;5058565;28;20196;-81
2021/06/17 05:28:18;;;;;;;4.20;3.50;;;22.70;99.90;;;;;;5040846;28;20169;-80
2021/06/17 05:30:44;;;;;;;4.03;3.20;;;22.70;99.90;;;;;;5040749;28;20182;-81
2021/06/17 05:33:10;;;;;;;3.80;3.30;;;22.90;99.90;;;;;;5072384;28;20186;-82
2021/06/17 05:35:36;;;;;;;3.90;3.27;;;23.00;99.90;;;;;;5073336;28;20882;-81
2021/06/17 05:38:02;;;;;;;6.23;3.60;;;23.10;99.90;;;;;;5056444;28;20217;-83
2021/06/17 05:40:27;;;;;;;4.93;3.03;;;23.30;99.90;;;;;;5057931;28;20185;-84
2021/06/17 05:42:53;;;;;;;4.63;3.27;;;23.80;99.90;;;;;;5057639;28;20598;-84
2021/06/17 05:45:18;;;;;;;4.57;3.20;;;24.60;99.90;;;;;;5074358;28;20189;-84
2021/06/17 05:47:44;;;;;;;3.72;3.15;;;25.20;99.90;;;;;;5053166;28;20244;-83
2021/06/17 05:50:10;;;;;;;3.05;2.80;;;25.70;99.90;;;;;;5036086;28;20190;-85
2021/06/17 05:52:35;;;;;;;3.40;3.08;;;26.30;99.90;;;;;;5036139;28;20182;-83
2021/06/17 05:55:01;;;;;;;3.85;2.65;;;26.70;99.90;;;;;;5035582;28;20197;-83
2021/06/17 05:57:27;;;;;;;2.97;2.70;;;26.70;99.90;;;;;;5036013;28;20198;-82
2021/06/17 05:59:52;;;;;;;4.13;2.90;;;26.90;99.90;;;;;;5035905;28;20170;-83
2021/06/17 06:02:23;;;;;;;2.80;2.60;;;27.20;99.90;;;;;;5036351;28;20182;-84
2021/06/17 06:04:50;;;;;;;4.65;2.80;;;27.60;99.90;;;;;;5036895;28;20263;-84
2021/06/17 06:07:16;;;;;;;4.47;2.90;;;27.60;99.90;;;;;;5052891;28;20190;-84
2021/06/17 06:09:42;;;;;;;3.75;2.63;;;27.60;99.90;;;;;;5035094;28;20601;-83
2021/06/17 06:12:10;;;;;;;3.88;2.47;;;27.80;99.90;;;;;;5048824;28;20272;-83
2021/06/17 06:14:35;;;;;;;5.07;2.70;;;27.90;99.90;;;;;;5067812;28;20584;-81
2021/06/17 06:17:01;;;;;;;4.57;2.70;;;28.00;99.90;;;;;;5052262;28;20198;-82
2021/06/17 06:19:28;;;;;;;3.78;2.70;;;28.40;99.90;;;;;;5048110;28;20174;-81
2021/06/17 06:21:54;;;;;;;2.97;2.40;;;29.20;99.90;;;;;;5051772;28;20539;-80
2021/06/17 06:24:19;;;;;;;2.85;2.50;;;29.70;99.90;;;;;;5055855;28;20332;-79
2021/06/17 06:26:45;;;;;;;3.17;2.75;;;29.80;99.90;;;;;;5053869;28;20208;-80
2021/06/17 06:29:11;;;;;;;2.88;2.50;;;29.80;99.90;;;;;;5052640;28;20703;-79
2021/06/17 06:31:37;;;;;;;2.55;2.35;;;30.00;99.90;;;;;;5062803;28;20178;-80
2021/06/17 06:34:03;;;;;;;2.47;2.28;;;29.90;99.90;;;;;;5035872;28;20174;-79
2021/06/17 06:36:28;;;;;;;3.03;2.40;;;29.70;99.90;;;;;;5036296;28;20232;-79
2021/06/17 06:38:54;;;;;;;4.03;2.60;;;29.60;99.90;;;;;;5036137;28;20568;-80
2021/06/17 06:41:19;;;;;;;4.05;2.47;;;29.40;99.90;;;;;;5052462;28;20170;-80
2021/06/17 06:43:45;;;;;;;5.85;2.75;;;28.90;99.90;;;;;;5048901;28;20548;-79
2021/06/17 06:46:10;;;;;;;3.03;2.40;;;28.50;99.90;;;;;;5067256;28;20250;-80
2021/06/17 06:48:36;;;;;;;2.92;2.38;;;28.40;99.90;;;;;;5049953;28;20239;-80
2021/06/17 06:51:01;;;;;;;3.72;2.45;;;28.40;99.90;;;;;;5045951;28;20189;-80
2021/06/17 06:53:27;;;;;;;5.43;2.65;;;28.30;99.90;;;;;;5071442;28;20679;-79
2021/06/17 06:55:53;;;;;;;3.60;2.47;;;28.60;99.90;;;;;;5054576;28;20193;-79
2021/06/17 06:58:18;;;;;;;4.85;2.70;;;28.60;99.90;;;;;;5071639;28;20224;-79
2021/06/17 07:00:44;;;;;;;4.20;2.33;;;28.50;99.90;;;;;;5068125;28;20221;-79
2021/06/17 07:03:12;;;;;;;3.17;2.60;;;28.50;99.90;;;;;;5066676;28;20182;-79
2021/06/17 07:05:38;;;;;;;3.08;2.45;;;28.70;99.90;;;;;;5054559;28;20213;-80
2021/06/17 07:08:09;;;;;;;3.47;2.55;;;28.70;99.90;;;;;;5071162;28;20189;-80
2021/06/17 07:10:36;;;;;;;4.22;2.40;;;28.50;99.90;;;;;;5071124;28;20193;-79
2021/06/17 07:13:01;;;;;;;3.85;2.50;;;28.60;99.90;;;;;;5051019;28;20209;-79
2021/06/17 07:15:27;;;;;;;5.57;2.45;;;28.70;99.90;;;;;;5051492;28;20202;-79
2021/06/17 07:17:52;;;;;;;3.03;2.50;;;28.90;99.90;;;;;;5034880;28;20716;-78
2021/06/17 07:20:18;;;;;;;3.00;2.70;;;29.10;99.90;;;;;;5052529;28;20665;-79
2021/06/17 07:22:44;;;;;;;2.92;2.50;;;29.50;99.90;;;;;;5035665;28;20576;-80
2021/06/17 07:25:10;;;;;;;3.17;2.15;;;29.70;99.90;;;;;;5051560;28;20657;-78
2021/06/17 07:27:35;;;;;;;3.20;2.53;;;30.00;99.90;;;;;;5052054;28;20170;-80
2021/06/17 07:30:01;;;;;;;4.55;2.60;;;30.20;99.90;;;;;;5051959;28;20242;-79
2021/06/17 07:32:27;;;;;;;3.47;2.33;;;30.10;99.90;;;;;;5068231;28;20227;-80
2021/06/17 07:34:52;;;;;;;4.88;2.65;;;30.10;99.90;;;;;;5051641;28;20202;-80
2021/06/17 07:37:18;;;;;;;3.80;2.55;;;30.10;99.90;;;;;;5051640;28;20217;-80
2021/06/17 07:39:43;;;;;;;3.13;2.45;;;30.30;99.90;;;;;;5051671;28;20186;-80
2021/06/17 07:42:10;;;;;;;5.63;2.78;;;30.10;99.90;;;;;;5051667;28;20174;-80
2021/06/17 07:44:36;;;;;;;4.60;2.50;;;29.90;99.90;;;;;;5035358;28;20198;-80
2021/06/17 07:47:01;;;;;;;3.95;2.28;;;29.80;99.90;;;;;;5035669;28;20256;-79
2021/06/17 07:49:27;;;;;;;2.55;2.35;;;30.10;99.90;;;;;;5035622;28;20179;-79
2021/06/17 07:51:52;;;;;;;2.92;2.20;;;30.40;99.90;;;;;;5036220;28;20171;-79
2021/06/17 07:54:18;;;;;;;3.60;2.75;;;30.60;99.90;;;;;;5052131;28;20194;-80
2021/06/17 07:56:44;;;;;;;4.55;2.08;;;30.40;99.90;;;;;;5052420;28;20253;-79
2021/06/17 07:59:10;;;;;;;3.13;2.10;;;30.40;99.90;;;;;;5036423;28;20170;-80
2021/06/17 08:01:36;;;;;;;5.78;2.70;;;30.60;99.90;;;;;;5038810;28;20270;-79
2021/06/17 08:06:36;;;;;;;4.53;2.45;;;30.70;99.90;;;;;;5043887;28;20558;-80
2021/06/17 08:09:03;;;;;;;2.67;2.28;;;30.60;99.90;;;;;;5027729;28;20236;-80
2021/06/17 08:11:28;;;;;;;3.05;2.35;;;30.60;99.90;;;;;;5044197;28;20381;-80
2021/06/17 08:13:54;;;;;;;3.08;2.20;;;30.70;99.90;;;;;;5028208;28;20195;-80
2021/06/17 08:16:19;;;;;;;2.60;2.20;;;30.80;99.90;;;;;;5044122;28;20191;-79
2021/06/17 08:18:45;;;;;;;3.03;2.10;;;31.00;99.90;;;;;;5022887;28;20476;-80
2021/06/17 08:21:10;;;;;;;3.05;2.33;;;30.90;99.90;;;;;;5044903;28;20186;-80
2021/06/17 08:23:36;;;;;;;2.30;2.05;;;30.70;99.90;;;;;;5018921;28;20684;-81
2021/06/17 08:26:02;;;;;;;2.70;2.50;;;30.90;99.90;;;;;;5004046;28;20200;-81
2021/06/17 08:28:27;;;;;;;4.07;2.38;;;31.00;99.90;;;;;;4991767;28;20646;-81
2021/06/17 08:30:53;;;;;;;2.45;2.08;;;31.30;99.90;;;;;;4993001;28;20561;-82
2021/06/17 08:33:19;;;;;;;2.67;2.00;;;31.40;99.90;;;;;;4990928;28;20183;-80
2021/06/17 08:35:45;;;;;;;2.60;2.40;;;31.60;99.90;;;;;;5023871;28;20572;-79
2021/06/17 08:38:10;;;;;;;2.65;1.98;;;31.80;99.90;;;;;;5008117;28;20203;-81
2021/06/17 08:40:36;;;;;;;2.60;2.30;;;31.80;99.90;;;;;;4990138;28;20694;-81
2021/06/17 08:43:03;;;;;;;3.22;1.95;;;31.70;99.90;;;;;;5039379;28;20179;-82
2021/06/17 08:45:28;;;;;;;2.50;2.22;;;31.60;99.90;;;;;;5005324;28;20226;-81
2021/06/17 08:47:54;;;;;;;3.95;2.25;;;31.60;99.90;;;;;;5023417;28;20729;-81
2021/06/17 08:50:20;;;;;;;2.22;2.03;;;31.50;99.90;;;;;;4989577;28;20191;-81
2021/06/17 08:52:45;;;;;;;7.80;2.55;;;31.60;99.90;;;;;;4989991;28;20180;-81
2021/06/17 08:55:25;;;;;;;2.53;2.10;;;31.50;99.90;;;;;;4988394;28;20207;-78
2021/06/17 08:57:52;;;;;;;2.38;2.17;;;31.40;99.90;;;;;;4990249;28;20207;-83
2021/06/17 09:00:21;;;;;;;3.40;2.10;;;31.50;99.90;;;;;;5020159;28;20251;-82
2021/06/17 09:03:10;;;;;;;3.67;2.00;;;31.60;99.90;;;;;;5023915;28;20254;-82
2021/06/17 09:05:40;;;;;;;3.42;2.05;;;31.70;99.90;;;;;;4985260;28;20705;-79
2021/06/17 09:08:07;;;;;;;2.95;2.15;;;31.90;99.90;;;;;;4997572;28;20544;-78
2021/06/17 09:10:33;;;;;;;2.88;2.30;;;31.70;99.90;;;;;;5000603;28;20187;-81
2021/06/17 09:13:00;;;;;;;4.38;2.45;;;31.60;99.90;;;;;;5001408;28;20175;-80
2021/06/17 09:15:35;;;;;;;3.00;1.90;;;31.70;99.90;;;;;;4986766;28;20207;-81
2021/06/17 09:18:34;;;;;;;2.47;1.92;;;31.90;99.90;;;;;;4986617;28;20274;-81
2021/06/17 09:21:10;;;;;;;2.60;2.35;;;32.10;99.90;;;;;;5037008;28;20183;-82
2021/06/17 09:23:39;;;;;;;2.60;2.10;;;32.30;99.90;;;;;;4988094;28;20179;-81
2021/06/17 09:26:09;;;;;;;2.00;1.90;;;32.30;99.90;;;;;;5003552;28;20246;-81
2021/06/17 09:28:52;;;;;;;2.65;1.88;;;32.20;99.90;;;;;;5003163;28;20171;-81
2021/06/17 09:31:22;;;;;;;3.38;2.40;;;32.30;99.90;;;;;;5031047;28;20218;-83
2021/06/17 09:33:49;;;;;;;5.03;2.28;;;32.50;99.90;;;;;;5022856;28;20274;-81
2021/06/17 09:36:14;;;;;;;2.15;1.95;;;32.50;99.60;;;;;;5022129;28;20662;-83
2021/06/17 09:38:50;;;;;;;2.63;2.17;;;32.40;99.90;;;;;;5038475;28;20248;-81
2021/06/17 09:41:53;;;;;;;3.10;2.30;;;32.40;99.90;;;;;;5022707;28;20163;-81
2021/06/17 09:44:39;;;;;;;3.13;1.92;;;32.50;99.90;;;;;;5007610;28;20183;-81
2021/06/17 09:47:17;;;;;;;4.97;1.98;;;32.50;99.70;;;;;;5038148;28;20171;-81
2021/06/17 09:49:43;;;;;;;4.35;1.70;;;32.70;99.90;;;;;;5022457;28;20163;-81
2021/06/17 09:52:09;;;;;;;4.03;2.40;;;32.80;99.90;;;;;;5037401;28;20194;-81
2021/06/17 09:54:39;;;;;;;1.90;1.70;;;32.90;99.30;;;;;;5020904;28;20194;-81
2021/06/17 09:57:06;;;;;;;3.08;1.88;;;32.90;99.10;;;;;;5021292;28;20736;-81
2021/06/17 09:59:45;;;;;;;4.25;2.00;;;32.90;98.70;;;;;;5037760;28;20190;-81
2021/06/17 10:02:16;;;;;;;2.47;1.80;;;33.00;97.40;;;;;;5018861;28;20228;-78
2021/06/17 10:04:42;;;;;;;2.03;1.83;;;33.00;96.80;;;;;;5017298;28;20234;-81
2021/06/17 10:07:07;;;;;;;2.85;2.08;;;32.80;97.60;;;;;;5021450;28;20179;-82
2021/06/17 10:09:33;;;;;;;4.72;2.10;;;32.80;97.40;;;;;;5005322;28;20181;-81
2021/06/17 10:11:59;;;;;;;2.15;1.92;;;32.90;98.40;;;;;;5037456;28;20254;-84
2021/06/17 10:14:25;;;;;;;2.15;1.95;;;32.90;97.50;;;;;;5005489;28;20286;-82
2021/06/17 10:16:51;;;;;;;2.20;1.90;;;33.00;97.10;;;;;;5004876;28;20175;-81
2021/06/17 10:19:19;;;;;;;2.00;1.77;;;33.10;97.10;;;;;;5038561;28;20175;-82
2021/06/17 10:21:45;;;;;;;3.92;2.00;;;33.10;96.60;;;;;;5005090;28;20178;-81
2021/06/17 10:24:14;;;;;;;2.00;1.80;;;33.00;94.70;;;;;;5003476;28;20178;-80
2021/06/17 10:26:45;;;;;;;4.43;2.15;;;32.80;94.70;;;;;;5037451;28;20171;-82
2021/06/17 10:29:28;;;;;;;2.78;1.98;;;32.90;95.40;;;;;;5022197;28;20225;-81
2021/06/17 10:31:58;;;;;;;2.75;1.95;;;32.90;94.30;;;;;;5037692;28;20171;-81
2021/06/17 10:34:24;;;;;;;1.85;1.50;;;33.10;94.60;;;;;;5021796;28;20198;-82
2021/06/17 10:37:30;;;;;;;3.17;1.88;;;33.30;95.00;;;;;;5038140;28;20175;-80
2021/06/17 10:40:04;;;;;;;2.35;2.10;;;33.40;93.90;;;;;;5017607;28;20198;-80
2021/06/17 10:42:33;;;;;;;2.60;2.08;;;33.30;94.10;;;;;;5021521;28;20178;-80
2021/06/17 10:45:02;;;;;;;2.10;1.80;;;33.50;95.30;;;;;;5037656;28;20191;-80
2021/06/17 10:47:46;;;;;;;2.88;1.92;;;33.60;93.20;;;;;;5038784;28;20179;-81
2021/06/17 10:50:12;;;;;;;2.53;2.13;;;33.60;92.90;;;;;;5039011;28;20179;-80
2021/06/17 10:52:40;;;;;;;2.03;1.83;;;33.50;91.90;;;;;;5021780;28;20175;-80
2021/06/17 10:55:12;;;;;;;3.22;1.60;;;33.60;92.30;;;;;;5021077;28;20205;-80
2021/06/17 10:57:50;;;;;;;1.90;1.70;;;33.70;91.90;;;;;;5037047;28;20191;-81
2021/06/17 11:00:30;;;;;;;2.38;1.67;;;33.60;92.10;;;;;;5038527;28;20638;-80
2021/06/17 11:03:05;;;;;;;2.05;1.85;;;33.70;91.60;;;;;;5037167;28;20182;-81
2021/06/17 11:08:22;;;;;;;1.98;1.60;;;33.60;90.50;;;;;;5028406;28;20286;-80
2021/06/17 11:11:05;;;;;;;1.48;1.38;;;33.60;90.50;;;;;;5012888;28;20591;-83
2021/06/17 11:13:34;;;;;;;2.55;1.95;;;33.50;88.30;;;;;;5019107;28;20160;-83
2021/06/17 11:16:00;;;;;;;3.28;1.65;;;33.50;89.80;;;;;;5020095;28;20274;-82
2021/06/17 11:21:22;;;;;;;1.85;1.60;;;33.70;89.50;;;;;;5036571;28;20543;-82
2021/06/17 11:23:55;;;;;;;1.85;1.42;;;33.70;86.30;;;;;;5053506;28;20179;-82
2021/06/17 11:26:36;;;;;;;1.85;1.75;;;33.60;85.80;;;;;;5021656;28;20619;-82
2021/06/17 11:29:03;;;;;;;2.25;1.63;;;33.50;86.50;;;;;;5037463;28;20159;-82
2021/06/17 11:31:41;;;;;;;1.60;1.50;;;33.60;87.40;;;;;;5037169;28;20186;-82
2021/06/17 11:34:07;;;;;;;2.42;2.00;;;33.80;87.50;;;;;;5036983;28;20194;-82
2021/06/17 11:36:33;;;;;;;1.70;1.60;;;33.70;86.10;;;;;;5040040;28;20550;-82
2021/06/17 11:39:04;;;;;;;1.90;1.70;;;33.70;88.50;;;;;;5007242;28;20262;-81
2021/06/17 11:41:31;;;;;;;3.20;1.80;;;33.80;87.10;;;;;;5024344;28;20185;-82
2021/06/17 11:44:02;;;;;;;1.60;1.50;;;33.80;86.30;;;;;;5039378;28;20214;-82
2021/06/17 11:46:36;;;;;;;1.60;1.50;;;33.90;88.40;;;;;;5020299;28;20195;-82
2021/06/17 11:49:05;;;;;;;1.67;1.58;;;34.00;83.40;;;;;;5025470;28;20220;-82
2021/06/17 11:51:54;;;;;;;2.28;1.45;;;34.00;84.90;;;;;;5041156;28;20182;-80
2021/06/17 11:54:21;;;;;;;2.05;1.75;;;34.00;83.00;;;;;;5025009;28;20249;-80
2021/06/17 11:56:55;;;;;;;2.25;1.70;;;34.00;82.50;;;;;;5023296;28;20285;-80
2021/06/17 11:59:26;;;;;;;2.03;1.80;;;33.90;83.80;;;;;;5039021;28;20182;-83
2021/06/17 12:02:05;;;;;;;1.65;1.55;;;34.00;84.60;;;;;;5039302;28;20242;-80
2021/06/17 12:04:59;;;;;;;1.63;1.52;;;34.00;85.30;;;;;;5012623;28;21093;-80
2021/06/17 12:07:44;;;;;;;1.88;1.60;;;33.90;84.00;;;;;;5037133;28;20273;-80
2021/06/17 12:10:18;;;;;;;2.33;1.60;;;34.10;83.80;;;;;;5024305;28;20174;-81
2021/06/17 12:12:48;;;;;;;1.70;1.60;;;34.10;83.60;;;;;;5039701;28;20159;-86
2021/06/17 12:15:25;;;;;;;1.98;1.77;;;34.20;83.40;;;;;;5021575;28;20210;-80
2021/06/17 12:17:52;;;;;;;1.60;1.38;;;34.10;82.60;;;;;;5032961;28;20658;-78
2021/06/17 12:20:26;;;;;;;2.50;1.60;;;34.10;83.20;;;;;;4984352;28;20689;-78
2021/06/17 12:22:59;;;;;;;1.65;1.55;;;34.10;83.70;;;;;;5018807;28;20183;-78
2021/06/17 12:25:25;;;;;;;1.70;1.60;;;34.10;84.60;;;;;;5054482;28;20195;-80
2021/06/17 12:27:51;;;;;;;2.10;1.60;;;34.10;83.00;;;;;;5011653;28;20684;-79
2021/06/17 12:30:33;;;;;;;2.15;1.20;;;34.20;85.60;;;;;;5025959;28;20183;-79
2021/06/17 12:33:12;;;;;;;1.80;1.60;;;34.20;79.60;;;;;;5043292;28;20183;-80
2021/06/17 12:35:41;;;;;;;3.83;1.40;;;34.20;79.40;;;;;;5039709;28;20195;-80
2021/06/17 12:38:07;;;;;;;2.47;1.50;;;34.30;78.10;;;;;;5038346;28;20202;-79
2021/06/17 12:40:40;;;;;;;1.63;1.40;;;34.40;79.70;;;;;;5036606;28;20186;-77
2021/06/17 12:43:09;;;;;;;1.65;1.48;;;34.20;78.90;;;;;;5038272;28;20542;-81
2021/06/17 12:45:35;;;;;;;1.70;1.50;;;34.30;79.00;;;;;;5038183;28;20194;-80
2021/06/17 12:48:11;;;;;;;2.40;1.50;;;34.30;78.20;;;;;;5018748;28;20183;-83
2021/06/17 12:53:21;;;;;;;1.50;1.40;;;34.50;78.10;;;;;;5030779;28;20201;-80
2021/06/17 12:55:55;;;;;;;1.80;1.50;;;34.40;79.50;;;;;;5039082;28;20199;-82
2021/06/17 12:58:23;;;;;;;2.22;1.95;;;34.40;77.30;;;;;;5022340;28;20871;-79
2021/06/17 13:00:56;;;;;;;1.48;1.38;;;34.40;77.70;;;;;;5022645;28;20241;-79
2021/06/17 13:03:27;;;;;;;4.65;1.63;;;34.50;76.00;;;;;;5022152;28;20615;-80
2021/06/17 13:05:55;;;;;;;1.70;1.38;;;34.50;77.10;;;;;;5018457;28;20274;-80
2021/06/17 13:08:22;;;;;;;1.40;1.30;;;34.60;76.30;;;;;;5032047;28;20540;-80